, TX

(GMT )
Brazos 451

Weather History for KBQX - December, 2013

Change the Weather History Date:

Monday, December 9, 2013

  Actual Average Record
Temperature  
Mean Temperature 55 °F -  
Max Temperature 62 °F - - ()
Min Temperature 48 °F - - ()
Degree Days  
Heating Degree Days 10    
Growing Degree Days 5 (Base 50)    
Moisture  
Dew Point 54 °F    
Average Humidity 93    
Maximum Humidity 100    
Minimum Humidity 87    
Precipitation  
Precipitation 0.00 in - - ()
Sea Level Pressure  
Sea Level Pressure 30.06 in    
Wind  
Wind Speed 20 mph (NE)    
Max Wind Speed 32 mph    
Max Gust Speed 38 mph    
Visibility 6 miles    
Events      
Averages and records for this station are not official NWS values.
T = Trace of Precipitation, MM = Missing Value Source: NWS Daily Summary

Daily Weather History Graph

Daily Weather History Graph

Search for Another Location

Airport or City:

Trip Planner

Search our weather history database for the weather conditions in past years. The results will help you decide how hot, cold, wet, or windy it might be!

Date:

Astronomy

Dec. 09, 2013 Rise Set
Actual Time 7:04 AM CST 5:26 PM CST
Civil Twilight 6:38 AM CST 5:52 PM CST
Nautical Twilight 6:08 AM CST 6:21 PM CST
Astronomical Twilight 5:40 AM CST 6:50 PM CST
Moon 12:26 PM CST (12/9) No Moon Set
Length of Visible Light 11h 14m
Length of Day
10h 22m
Waxing Crescent, 51% of the Moon is Illuminated
Dec 9
Waxing Crescent
Dec 17
Full
Dec 25
Last Quarter
Jan 1
New
Jan 7
First Quarter

Hourly Weather History & Observations

Time (CST) Temp. Dew Point Humidity Pressure Visibility Wind Dir Wind Speed Gust Speed Precip Events Conditions
12:15 AM 53.6 °F 51.8 °F 94% 30.07 in 8.0 mi NE 18.4 mph - N/A   Overcast
12:35 AM 53.6 °F 51.8 °F 94% 30.07 in 8.0 mi NE 19.6 mph 25.3 mph N/A   Overcast
12:55 AM 53.6 °F 51.8 °F 94% 30.06 in 8.0 mi ENE 12.7 mph 20.7 mph N/A   Overcast
1:15 AM 55.4 °F 51.8 °F 88% 30.05 in 8.0 mi ENE 13.8 mph - N/A   Overcast
1:35 AM 55.4 °F 51.8 °F 88% 30.05 in 9.0 mi ENE 17.3 mph 23.0 mph N/A   Overcast
1:55 AM 55.4 °F 53.6 °F 94% 30.05 in 8.0 mi ENE 16.1 mph - N/A   Overcast
2:15 AM 55.4 °F 53.6 °F 94% 30.03 in 8.0 mi ENE 15.0 mph 23.0 mph N/A   Overcast
2:35 AM 57.2 °F 53.6 °F 88% 30.03 in 9.0 mi ENE 17.3 mph - N/A   Overcast
2:55 AM 57.2 °F 55.4 °F 94% 30.03 in 8.0 mi ENE 17.3 mph 25.3 mph N/A   Overcast
3:15 AM 57.2 °F 55.4 °F 94% 30.03 in 9.0 mi NE 17.3 mph 23.0 mph N/A   Overcast
3:35 AM 57.2 °F 55.4 °F 94% 30.04 in 9.0 mi NE 16.1 mph - N/A   Overcast
3:55 AM 57.2 °F 55.4 °F 94% 30.04 in 8.0 mi ENE 12.7 mph 19.6 mph N/A   Overcast
4:15 AM 57.2 °F 55.4 °F 94% 30.03 in 8.0 mi ENE 15.0 mph - N/A   Overcast
4:35 AM 59.0 °F 55.4 °F 88% 30.03 in 8.0 mi NE 15.0 mph - N/A   Overcast
4:55 AM 59.0 °F 55.4 °F 88% 30.04 in 8.0 mi NE 13.8 mph 23.0 mph N/A   Overcast
5:15 AM 59.0 °F 55.4 °F 88% 30.03 in 7.0 mi NE 16.1 mph 21.9 mph N/A   Overcast
5:35 AM 59.0 °F 55.4 °F 88% 30.04 in 5.0 mi NE 15.0 mph - N/A   Overcast
5:55 AM 59.0 °F 57.2 °F 94% 30.04 in 4.0 mi NE 19.6 mph - N/A   Overcast
6:15 AM 59.0 °F 55.4 °F 88% 30.04 in 5.0 mi NE 13.8 mph 24.2 mph N/A   Overcast
6:35 AM 59.0 °F 55.4 °F 88% 30.04 in 6.0 mi NE 19.6 mph 25.3 mph N/A   Overcast
6:55 AM 57.2 °F 55.4 °F 94% 30.05 in 4.0 mi NE 17.3 mph 26.5 mph N/A   Overcast
7:15 AM 57.2 °F 55.4 °F 94% 30.05 in 3.0 mi NE 16.1 mph 23.0 mph N/A   Overcast
7:35 AM 57.2 °F 55.4 °F 94% 30.06 in - ENE 15.0 mph - N/A   Overcast
7:55 AM 59.0 °F 57.2 °F 94% 30.06 in 3.0 mi ENE 15.0 mph 24.2 mph N/A   Overcast
8:15 AM 59.0 °F 57.2 °F 94% 30.06 in 1.5 mi ENE 17.3 mph 24.2 mph N/A   Overcast
8:35 AM 59.0 °F 57.2 °F 94% 30.06 in 2.5 mi ENE 18.4 mph 25.3 mph N/A   Overcast
8:55 AM 60.8 °F 59.0 °F 94% 30.07 in 3.0 mi ENE 17.3 mph 24.2 mph N/A   Overcast
9:15 AM 60.8 °F 59.0 °F 94% 30.07 in 2.5 mi ENE 18.4 mph 24.2 mph N/A   Overcast
9:35 AM 60.8 °F 59.0 °F 94% 30.07 in 2.0 mi ENE 18.4 mph 27.6 mph N/A   Overcast
9:55 AM 60.8 °F 59.0 °F 94% 30.07 in 3.0 mi ENE 20.7 mph 28.8 mph N/A   Overcast
10:15 AM 60.8 °F 59.0 °F 94% 30.07 in 5.0 mi East 23.0 mph 29.9 mph N/A   Mostly Cloudy
10:35 AM 60.8 °F 59.0 °F 94% 30.06 in 5.0 mi ENE 25.3 mph - N/A   Mostly Cloudy
10:55 AM 60.8 °F 59.0 °F 94% 30.06 in 6.0 mi ENE 24.2 mph 33.4 mph N/A   Overcast
11:15 AM 62.6 °F 59.0 °F 88% 30.05 in 5.0 mi East 18.4 mph 32.2 mph N/A   Overcast
11:35 AM 62.6 °F 59.0 °F 88% 30.04 in 4.0 mi East 23.0 mph 31.1 mph N/A   Overcast
11:55 AM 62.6 °F 60.8 °F 94% 30.03 in 4.0 mi East 18.4 mph 29.9 mph N/A   Overcast
12:15 PM 62.6 °F 60.8 °F 94% 30.02 in 7.0 mi ENE 17.3 mph 27.6 mph N/A   Overcast
12:35 PM 62.6 °F 60.8 °F 94% 30.01 in 7.0 mi East 15.0 mph 25.3 mph N/A   Overcast
12:55 PM 62.6 °F 60.8 °F 94% 30.01 in 7.0 mi East 17.3 mph 28.8 mph N/A   Overcast
1:15 PM 62.6 °F 60.8 °F 94% 30.00 in 8.0 mi East 16.1 mph 27.6 mph N/A   Overcast
1:35 PM 62.6 °F 59.0 °F 88% 29.99 in 7.0 mi ENE 23.0 mph 31.1 mph N/A   Overcast
1:55 PM 62.6 °F 59.0 °F 88% 29.98 in 1.2 mi ENE 21.9 mph 31.1 mph N/A   Overcast
2:15 PM 60.8 °F 59.0 °F 94% 30.00 in 3.0 mi NNE 25.3 mph - N/A   Overcast
2:35 PM 59.0 °F 57.2 °F 94% 29.99 in 3.0 mi NNE 29.9 mph - N/A   Overcast
2:55 PM 59.0 °F 57.2 °F 94% 29.99 in 4.0 mi NNE 28.8 mph - N/A   Overcast
3:15 PM 57.2 °F 55.4 °F 94% 30.00 in 5.0 mi NNE 27.6 mph - N/A   Overcast
3:35 PM 59.0 °F 57.2 °F 94% 29.99 in 7.0 mi ENE 17.3 mph - N/A   Overcast
3:55 PM 59.0 °F 55.4 °F 88% 30.01 in 6.0 mi NE 23.0 mph - N/A   Overcast
4:15 PM 57.2 °F 55.4 °F 94% 30.02 in 6.0 mi NE 24.2 mph 29.9 mph N/A   Overcast
4:35 PM 57.2 °F 55.4 °F 94% 30.02 in 6.0 mi NNE 28.8 mph - N/A   Overcast
4:55 PM 55.4 °F 53.6 °F 94% 30.03 in 5.0 mi NNE 25.3 mph - N/A   Overcast
5:15 PM 55.4 °F 53.6 °F 94% 30.03 in 5.0 mi NNE 27.6 mph - N/A   Overcast
5:35 PM 55.4 °F 53.6 °F 94% 30.05 in 8.0 mi NNE 27.6 mph - N/A   Overcast
5:55 PM 53.6 °F 51.8 °F 94% 30.06 in 8.0 mi NNE 28.8 mph - N/A   Overcast
6:15 PM 53.6 °F 51.8 °F 94% 30.07 in 7.0 mi NNE 26.5 mph - N/A   Overcast
6:35 PM 53.6 °F 51.8 °F 94% 30.08 in 6.0 mi North 27.6 mph - N/A   Overcast
6:55 PM 51.8 °F 50.0 °F 94% 30.08 in 5.0 mi NNE 25.3 mph - N/A   Overcast
7:15 PM 51.8 °F 50.0 °F 94% 30.09 in 5.0 mi NNE 25.3 mph - N/A   Overcast
7:35 PM 51.8 °F 50.0 °F 94% 30.10 in 4.0 mi NNE 27.6 mph - N/A   Overcast
7:55 PM 50.0 °F 50.0 °F 100% 30.11 in 5.0 mi North 26.5 mph 33.4 mph N/A   Overcast
8:15 PM 50.0 °F 48.2 °F 94% 30.12 in 7.0 mi North 27.6 mph - N/A   Overcast
8:35 PM 50.0 °F 48.2 °F 94% 30.13 in 9.0 mi NNE 27.6 mph - N/A   Overcast
8:55 PM 50.0 °F 48.2 °F 94% 30.14 in 10.0 mi NNE 28.8 mph - N/A   Overcast
9:15 PM 50.0 °F 48.2 °F 94% 30.15 in 10.0 mi NNE 28.8 mph 35.7 mph N/A   Overcast
9:35 PM 50.0 °F 48.2 °F 94% 30.17 in 10.0 mi North 26.5 mph 34.5 mph N/A   Overcast
9:55 PM 50.0 °F 48.2 °F 94% 30.18 in 10.0 mi North 29.9 mph - N/A   Overcast
10:15 PM 50.0 °F 46.4 °F 87% 30.18 in 8.0 mi North 29.9 mph - N/A   Overcast
10:35 PM 48.2 °F 46.4 °F 93% 30.19 in 6.0 mi North 31.1 mph - N/A   Overcast
10:55 PM 48.2 °F 46.4 °F 93% 30.21 in 5.0 mi North 31.1 mph - N/A   Overcast
11:15 PM 48.2 °F 46.4 °F 93% 30.21 in 8.0 mi North 29.9 mph 36.8 mph N/A   Overcast
11:35 PM 48.2 °F 46.4 °F 93% 30.22 in 10.0 mi North 32.2 mph - N/A   Overcast
11:55 PM 48.2 °F 46.4 °F 93% 30.23 in 10.0 mi North 32.2 mph 38.0 mph N/A   Overcast